Latest Weather Observations for Cowra

IDN60801

Issued at 11:02 pm EDT Sunday 29 March 2015 (issued every 30 minutes, with the page automatically refreshed every 10 minutes)

About weather observations | Map of weather stations | Latest weather observations for NSW | Other Formats
Station Details ID: 065111 Name: COWRA AIRPORT AWS Lat: -33.84 Lon: 148.65 Height: 296.5 m
Data from the previous 72 hours. | See also: Recent months at Cowra
Date/Time
EDT
Temp
°C
App
Temp
°C
Dew
Point
Rel
Hum
%
Delta-T
°C
Wind Press
QNH
hPa
Press
MSL
hPa
Rain
since 9 am
mm
Dir
 
Spd
km/h
Gust
km/h
Spd
kts
Gust
kts
29/11:00pm 18.4 15.3 3.8 38 6.9 SE 9 11 5 6 1023.8 - 0.0
29/10:30pm 18.6 15.9 3.6 37 7.1 S 7 11 4 6 1024.0 - 0.0
29/10:00pm 18.6 16.1 3.6 37 7.2 S 6 7 3 4 1024.0 - 0.0
29/09:30pm 17.7 15.0 2.8 37 6.9 SSW 6 9 3 5 1023.8 - 0.0
29/09:00pm 18.6 15.7 2.4 34 7.5 SSW 7 9 4 5 1023.1 1022.3 0.0
29/08:30pm 19.8 17.0 3.1 33 8.0 S 7 9 4 5 1022.7 - 0.0
29/08:00pm 20.3 17.0 2.6 31 8.3 S 9 11 5 6 1022.2 - 0.0
29/07:30pm 20.8 17.1 2.6 30 8.7 S 11 11 6 6 1022.1 - 0.0
29/07:00pm 22.1 18.0 2.2 27 9.4 SSW 13 15 7 8 1021.9 - 0.0
29/06:30pm 23.0 18.9 2.5 26 9.8 SSW 13 17 7 9 1021.7 - 0.0
29/06:00pm 23.7 19.2 2.0 24 10.4 SSW 15 17 8 9 1021.4 1020.6 0.0
29/05:30pm 25.0 21.9 1.2 21 11.4 S 7 11 4 6 1021.2 - 0.0
29/05:00pm 25.4 21.4 0.8 20 11.7 WSW 11 17 6 9 1021.5 - 0.0
29/04:30pm 25.6 21.3 1.0 20 11.8 WSW 13 19 7 10 1021.4 - 0.0
29/04:00pm 25.5 22.1 1.6 21 11.5 S 9 19 5 10 1021.6 - 0.0
29/03:30pm 25.0 20.3 1.2 21 11.4 S 15 22 8 12 1021.8 - 0.0
29/03:00pm 24.9 20.3 1.7 22 11.1 SSW 15 24 8 13 1022.2 1021.4 0.0
29/02:30pm 24.6 20.9 2.1 23 10.9 SSW 11 19 6 10 1022.5 - 0.0
29/02:00pm 23.7 19.6 2.5 25 10.3 SW 13 20 7 11 1022.6 - 0.0
29/01:30pm 23.3 19.6 2.2 25 10.1 SSW 11 19 6 10 1022.9 - 0.0
29/01:00pm 22.5 19.7 3.1 28 9.4 NNW 7 13 4 7 1023.4 - 0.0
29/12:30pm 21.7 19.2 3.9 31 8.7 N 6 9 3 5 1023.7 - 0.0
29/12:00pm 21.2 18.3 4.7 34 8.2 NNW 9 13 5 7 1024.2 1023.4 0.0
29/11:30am 20.0 17.9 6.7 42 6.8 NNW 7 11 4 6 1024.3 - 0.0
29/11:00am 18.8 17.6 6.3 44 6.3 WSW 2 7 1 4 1024.2 - 0.0
29/10:30am 17.5 16.1 5.4 45 5.9 SSW 2 7 1 4 1024.6 - 0.0
29/10:00am 15.8 14.3 5.1 49 5.2 S 2 9 1 5 1024.5 - 0.0
29/09:30am 14.6 13.4 4.6 51 4.7 CALM 0 7 0 4 1024.5 - 0.0
29/09:00am 13.2 12.0 4.6 56 4.0 CALM 0 7 0 4 1023.9 1023.1 0.0
29/08:30am 11.7 10.6 4.9 63 3.2 CALM 0 0 0 0 1023.8 - 0.0
29/08:00am 10.1 8.8 4.3 67 2.6 CALM 0 0 0 0 1023.7 - 0.0
29/07:30am 9.9 7.8 3.9 66 2.7 S 4 9 2 5 1023.3 - 0.0
29/07:00am 10.6 8.1 3.6 62 3.1 SSW 6 9 3 5 1022.8 - 0.0
29/06:30am 11.0 8.5 4.5 64 3.0 SSW 7 9 4 5 1022.3 - 0.0
29/06:00am 9.9 8.5 3.6 65 2.8 CALM 0 9 0 5 1021.9 1021.1 0.0
29/05:30am 10.5 7.9 4.0 64 2.9 SSE 7 11 4 6 1022.0 - 0.0
29/05:00am 10.6 8.1 3.6 62 3.1 SSE 6 9 3 5 1021.8 - 0.0
29/04:30am 10.3 8.1 3.1 61 3.2 SSE 4 9 2 5 1021.8 - 0.0
29/04:00am 10.8 7.7 3.4 60 3.3 SE 9 11 5 6 1021.7 - 0.0
29/03:30am 10.8 8.2 3.1 59 3.4 SE 6 11 3 6 1021.9 - 0.0
29/03:00am 10.7 9.2 2.8 58 3.5 CALM 0 9 0 5 1022.3 1021.5 0.0
29/02:30am 10.1 8.5 2.5 59 3.3 CALM 0 0 0 0 1022.5 - 0.0
29/02:00am 8.9 7.2 1.8 61 3.0 CALM 0 0 0 0 1022.5 - 0.0
29/01:30am 9.8 7.7 1.5 56 3.5 ESE 2 7 1 4 1022.4 - 0.0
29/01:00am 9.6 7.8 1.5 57 3.4 CALM 0 0 0 0 1022.3 - 0.0
29/12:30am 10.5 8.4 1.9 55 3.7 E 2 6 1 3 1022.2 - 0.0
29/12:00am 11.1 9.5 2.2 54 3.9 CALM 0 4 0 2 1022.1 1021.3 0.0
 
Date/Time
EDT
Temp
°C
App
Temp
°C
Dew
Point
Rel
Hum
%
Delta-T
°C
Wind Press
QNH
hPa
Press
MSL
hPa
Rain
since 9 am
mm
Dir
 
Spd
km/h
Gust
km/h
Spd
kts
Gust
kts
28/11:30pm 11.3 9.7 2.3 54 3.9 CALM 0 0 0 0 1022.3 - 0.0
28/11:00pm 13.4 11.8 2.6 48 4.8 CALM 0 0 0 0 1022.4 - 0.0
28/10:30pm 10.6 8.7 0.3 49 4.3 CALM 0 0 0 0 1022.6 - 0.0
28/10:00pm 15.0 11.8 0.8 38 6.2 ESE 7 9 4 5 1022.4 - 0.0
28/09:30pm 14.2 12.1 -0.6 36 6.2 CALM 0 0 0 0 1022.5 - 0.0
28/09:00pm 15.6 13.4 -1.4 31 7.1 CALM 0 0 0 0 1022.2 1021.4 0.0
28/08:30pm 16.6 14.4 -1.5 29 7.6 CALM 0 0 0 0 1021.9 - 0.0
28/08:00pm 18.1 15.9 -1.2 27 8.3 CALM 0 0 0 0 1021.5 - 0.0
28/07:30pm 19.1 16.9 -1.9 24 9.0 CALM 0 4 0 2 1021.2 - 0.0
28/07:00pm 20.1 16.1 -2.3 22 9.6 SW 9 11 5 6 1021.2 - 0.0
28/06:30pm 22.4 18.5 -1.6 20 10.6 SW 9 13 5 7 1020.9 - 0.0
28/06:00pm 23.2 19.8 2.1 25 10.1 NW 9 11 5 6 1020.7 1020.0 0.0
28/05:30pm 24.1 20.6 1.1 22 10.9 W 9 15 5 8 1020.8 - 0.0
28/05:00pm 23.6 20.0 0.7 22 10.7 S 9 15 5 8 1020.9 - 0.0
28/04:30pm 23.8 20.4 2.0 24 10.5 E 9 15 5 8 1021.0 - 0.0
28/04:00pm 23.7 20.8 2.5 25 10.3 NW 7 13 4 7 1021.2 - 0.0
28/03:30pm 22.9 19.6 2.4 26 9.9 NNE 9 15 5 8 1021.3 - 0.0
28/03:00pm 22.2 19.4 1.8 26 9.6 S 6 9 3 5 1021.6 1020.9 0.0
28/02:30pm 21.9 18.9 2.1 27 9.4 ENE 7 11 4 6 1021.9 - 0.0
28/02:00pm 21.1 18.3 2.9 30 8.7 S 7 11 4 6 1022.3 - 0.0
28/01:30pm 20.9 18.2 3.6 32 8.4 NW 7 13 4 7 1022.8 - 0.0
28/01:00pm 19.4 16.2 3.2 34 7.7 SE 9 19 5 10 1023.5 - 0.0
28/12:30pm 19.5 17.0 4.0 36 7.5 SW 6 11 3 6 1024.0 - 0.0
28/12:00pm 18.4 15.7 3.8 38 6.9 ESE 7 13 4 7 1024.2 1023.4 0.0
28/11:30am 18.2 15.9 4.7 41 6.6 S 6 9 3 5 1024.7 - 0.0
28/11:00am 16.8 14.3 4.8 45 5.8 SSE 7 13 4 7 1024.9 - 0.0
28/10:30am 15.3 12.9 4.4 48 5.2 SSE 6 11 3 6 1025.0 - 0.0
28/10:00am 14.5 12.9 4.5 51 4.7 E 2 7 1 4 1024.9 - 0.0
28/09:30am 12.8 10.9 5.0 59 3.7 E 4 7 2 4 1024.8 - 0.0
28/09:00am 10.3 9.1 4.7 68 2.5 CALM 0 0 0 0 1024.8 1024.0 0.0
28/08:30am 8.4 7.3 5.0 79 1.5 CALM 0 0 0 0 1024.5 - 0.0
28/08:00am 4.5 3.0 2.8 89 0.7 CALM 0 0 0 0 1024.2 - 0.0
28/07:30am 4.0 2.4 2.4 89 0.7 CALM 0 0 0 0 1024.0 - 0.0
28/07:00am 4.0 2.3 2.0 87 0.8 CALM 0 0 0 0 1023.8 - 0.0
28/06:30am 4.9 3.3 2.6 85 1.0 CALM 0 2 0 1 1023.6 - 0.0
28/06:00am 6.0 4.2 3.5 84 1.1 SSE 2 7 1 4 1023.3 1022.6 0.0
28/05:30am 5.7 3.8 3.0 83 1.1 SE 2 9 1 5 1022.9 - 0.0
28/05:00am 6.2 4.7 3.2 81 1.3 CALM 0 0 0 0 1022.6 - 0.0
28/04:30am 5.4 3.8 2.4 81 1.2 CALM 0 0 0 0 1022.6 - 0.0
28/04:00am 7.1 5.8 3.9 80 1.4 CALM 0 0 0 0 1022.6 - 0.0
28/03:30am 5.5 3.9 2.2 79 1.4 CALM 0 0 0 0 1022.7 - 0.0
28/03:00am 7.6 4.9 2.9 72 2.0 SE 6 7 3 4 1022.9 1022.2 0.0
28/02:30am 8.3 6.7 4.5 77 1.7 ESE 2 9 1 5 1023.3 - 0.0
28/02:00am 9.0 6.5 3.8 70 2.3 SE 6 7 3 4 1023.3 - 0.0
28/01:30am 8.8 7.4 3.8 71 2.2 CALM 0 0 0 0 1023.5 - 0.0
28/01:00am 12.0 9.4 4.2 59 3.6 S 7 9 4 5 1023.4 - 0.0
28/12:30am 12.1 9.1 4.1 58 3.7 S 9 11 5 6 1023.6 - 0.0
28/12:00am 12.4 9.9 3.9 56 3.9 SSW 6 7 3 4 1023.6 1022.8 0.0
 
Date/Time
EDT
Temp
°C
App
Temp
°C
Dew
Point
Rel
Hum
%
Delta-T
°C
Wind Press
QNH
hPa
Press
MSL
hPa
Rain
since 9 am
mm
Dir
 
Spd
km/h
Gust
km/h
Spd
kts
Gust
kts
27/11:30pm 12.3 9.3 4.0 57 3.8 SW 9 11 5 6 1023.5 - 0.0
27/11:00pm 12.5 10.0 3.5 54 4.1 SW 6 7 3 4 1023.5 - 0.0
27/10:30pm 13.4 10.3 3.8 52 4.4 SSW 9 9 5 5 1023.4 - 0.0
27/10:00pm 15.1 12.4 3.9 47 5.2 S 7 9 4 5 1023.2 - 0.0
27/09:30pm 14.4 13.1 4.1 50 4.8 CALM 0 0 0 0 1022.9 - 0.0
27/09:00pm 14.2 11.6 3.4 48 4.9 W 6 7 3 4 1022.6 1021.9 0.0
27/08:30pm 15.7 13.0 3.5 44 5.7 WSW 7 9 4 5 1022.2 - 0.0
27/08:00pm 16.4 13.2 3.1 41 6.2 SW 9 11 5 6 1021.9 - 0.0
27/07:30pm 17.6 13.3 3.1 38 6.8 WSW 15 19 8 10 1021.5 - 0.0
27/07:00pm 19.0 14.3 3.2 35 7.5 SW 17 20 9 11 1021.2 - 0.0
27/06:30pm 20.2 15.1 3.9 34 7.9 SW 20 30 11 16 1020.9 - 0.0
27/06:00pm 20.9 15.3 3.6 32 8.4 WSW 22 32 12 17 1020.7 1019.9 0.0
27/05:30pm 21.2 15.7 3.9 32 8.5 SW 22 33 12 18 1020.7 - 0.0
27/05:00pm 21.2 16.1 3.9 32 8.5 WSW 20 41 11 22 1020.7 - 0.0
27/04:30pm 21.3 16.3 4.4 33 8.3 W 20 35 11 19 1020.8 - 0.0
27/04:00pm 20.9 14.6 4.0 33 8.3 WSW 26 37 14 20 1021.0 - 0.0
27/03:30pm 20.6 15.5 4.2 34 8.0 SW 20 39 11 21 1021.2 - 0.0
27/03:00pm 20.3 13.7 4.4 35 7.8 SW 28 39 15 21 1021.7 1020.9 0.0
27/02:30pm 20.1 14.0 4.6 36 7.6 WSW 26 35 14 19 1022.1 - 0.0
27/02:00pm 19.0 13.6 4.7 39 7.0 S 22 39 12 21 1022.5 - 0.0
27/01:30pm 19.4 13.6 4.3 37 7.3 SW 24 39 13 21 1022.7 - 0.0
27/01:00pm 19.3 13.9 4.6 38 7.2 SW 22 37 12 20 1023.2 - 0.0
27/12:30pm 18.6 13.7 5.1 41 6.6 WSW 20 30 11 16 1023.9 - 0.0
27/12:00pm 17.6 13.0 5.5 45 5.9 WSW 19 32 10 17 1024.3 1023.5 0.0
27/11:30am 17.1 13.3 6.0 48 5.5 WSW 15 26 8 14 1024.5 - 0.0
27/11:00am 15.7 12.6 5.6 51 4.9 S 11 20 6 11 1024.8 - 0.0
27/10:30am 14.2 10.6 4.8 53 4.4 SSW 13 20 7 11 1024.9 - 0.0
27/10:00am 13.3 9.5 3.9 53 4.3 SSW 13 19 7 10 1024.9 - 0.0
27/09:30am 12.5 9.6 2.7 51 4.4 SSW 7 13 4 7 1024.9 - 0.0
27/09:00am 12.1 9.4 2.8 53 4.1 WNW 6 11 3 6 1024.9 1024.1 0.0
27/08:30am 11.2 9.8 3.3 58 3.5 CALM 0 0 0 0 1024.8 - 0.0
27/08:00am 8.1 6.7 3.8 74 1.9 CALM 0 6 0 3 1024.4 - 0.0
27/07:30am 7.0 4.0 0.5 63 2.6 SSW 6 9 3 5 1024.1 - 0.0
27/07:00am 8.0 4.8 0.7 60 3.0 SW 7 11 4 6 1024.0 - 0.0
27/06:30am 7.7 5.6 1.8 66 2.5 SW 2 9 1 5 1023.7 - 0.0
27/06:00am 2.9 0.9 -0.4 79 1.2 CALM 0 0 0 0 1023.5 1022.7 0.0
27/05:30am 4.5 2.6 0.3 74 1.6 CALM 0 0 0 0 1023.1 - 0.0
27/05:00am 5.5 3.3 1.1 73 1.8 NNE 2 13 1 7 1022.8 - 0.0
27/04:30am 5.0 3.1 0.4 72 1.8 CALM 0 0 0 0 1022.8 - 0.0
27/04:00am 5.0 3.0 -0.4 68 2.1 CALM 0 6 0 3 1022.7 - 0.0
27/03:30am 5.1 2.6 -0.7 66 2.2 ESE 2 9 1 5 1022.8 - 0.0
27/03:00am 7.1 5.1 -0.1 60 2.8 CALM 0 7 0 4 1022.9 1022.3 0.0
27/02:30am 10.1 8.1 0.2 50 4.1 CALM 0 0 0 0 1023.3 - 0.0
27/02:00am 9.7 7.3 -0.2 50 4.0 WSW 2 7 1 4 1023.5 - 0.0
27/01:30am 9.7 6.3 -0.5 49 4.1 WSW 7 9 4 5 1023.5 - 0.0
27/01:00am 9.5 5.6 -1.5 46 4.3 SW 9 11 5 6 1023.7 - 0.0
27/12:30am 11.8 7.6 -1.0 41 5.2 SW 11 17 6 9 1023.8 - 0.0
27/12:00am 11.7 8.3 -0.8 42 5.1 SW 7 9 4 5 1023.8 1023.0 0.0
 
Date/Time
EDT
Temp
°C
App
Temp
°C
Dew
Point
Rel
Hum
%
Delta-T
°C
Wind Press
QNH
hPa
Press
MSL
hPa
Rain
since 9 am
mm
Dir
 
Spd
km/h
Gust
km/h
Spd
kts
Gust
kts
26/11:30pm 11.3 9.2 -0.5 44 4.8 CALM 0 0 0 0 1023.7 - 0.0

Other Formats:

Comma delimited format used in spreadsheet applications
http://www.bom.gov.au/fwo/IDN60801/IDN60801.95721.axf

JavaScript Object Notation format (JSON) in row-major order
http://www.bom.gov.au/fwo/IDN60801/IDN60801.95721.json